LIBG

Taranto-Grottaglie "Marcello Arlotta" Airport

Grottaglie, Italy
TAF LIBG 141700Z 1418/1503 VRB05KT 9999 SCT030 BECMG 1500/1503 TSRA
Issued Valid From Valid To
Dec-14 @ 17:00 UTC
(5 hours ago)
Dec-14 @ 18:00 UTC
(4 hours ago)
Dec-15 @ 03:00 UTC
(in 5 hours)
Dec-14 @ 18:00 to Dec-15 @ 00:00
TAF LIBG 141700Z 1418/1503 VRB05KT 9999 SCT030
Wind Visibility Clouds
Variable at 5 knots 10,000+ meters
  • Scattered at 3,000' AGL
Becoming Dec-15 @ 00:00 to Dec-15 @ 03:00
BECMG 1500/1503 TSRA
Wind Visibility Clouds Conditions
Variable at 5 knots 10,000+ meters
  • Scattered at 3,000' AGL
  • Thunderstorm
  • Rain
TAF LIBG 141700Z 1418/1503 VRB05KT 9999 SCT030 BECMG 1500/1503 TSRA
Issued Dec-14 @ 17:00 UTC
(5 hours ago)
Valid From Dec-14 @ 18:00 UTC
(4 hours ago)
Valid To Dec-15 @ 03:00 UTC
(in 5 hours)
Dec-14 @ 18:00 - Dec-15 @ 00:00
Wind Visibility
Variable at 5 knots 10,000+ meters
Clouds
  • Scattered at 3,000' AGL
Becoming Dec-15 @ 00:00 - Dec-15 @ 03:00
Wind Visibility
Variable at 5 knots 10,000+ meters
Clouds
  • Scattered at 3,000' AGL
Conditions
  • Thunderstorm
  • Rain